Time;durP1;ratioP1;P1;durP2;ratioP2;P2;SDS_P1;SDS_P2;PMS_P1;PMS_P2;Temp;Humidity;BMP_temperature;BMP_pressure;BME280_temperature;BME280_humidity;BME280_pressure;Samples;Min_cycle;Max_cycle;Signal;HPM_P1;HPM_P2
2022/06/25 00:03:39;;;;;;;32.95;26.92;;;;;;;20.08;100.00;100844.53;10342843;28;20032;-70
2022/06/25 00:08:37;;;;;;;29.17;23.23;;;;;;;19.95;100.00;100827.31;10358761;28;20044;-70
2022/06/25 00:13:34;;;;;;;35.50;26.75;;;;;;;19.86;100.00;100824.03;10365726;28;20552;-64
2022/06/25 00:18:31;;;;;;;30.80;22.65;;;;;;;19.85;100.00;100827.22;10352190;28;20047;-70
2022/06/25 00:23:27;;;;;;;30.80;23.90;;;;;;;19.83;100.00;100847.00;10346636;28;20059;-72
2022/06/25 00:28:24;;;;;;;28.00;22.63;;;;;;;19.81;100.00;100859.66;10345234;28;20064;-71
2022/06/25 00:33:20;;;;;;;24.65;21.35;;;;;;;19.88;100.00;100859.75;10344011;28;20040;-71
2022/06/25 00:38:16;;;;;;;26.77;22.05;;;;;;;19.94;100.00;100870.13;10352472;28;20095;-68
2022/06/25 00:43:13;;;;;;;28.98;23.00;;;;;;;19.95;100.00;100880.03;10335197;28;20067;-69
2022/06/25 00:48:10;;;;;;;28.00;24.98;;;;;;;19.92;100.00;100869.72;10356818;28;20070;-69
2022/06/25 00:53:08;;;;;;;27.50;23.65;;;;;;;19.93;100.00;100874.06;10352627;28;20123;-71
2022/06/25 00:58:09;;;;;;;26.58;21.02;;;;;;;19.93;100.00;100890.72;10355399;28;20413;-70
2022/06/25 01:03:06;;;;;;;27.98;23.48;;;;;;;19.91;100.00;100887.56;10346373;28;20136;-70
2022/06/25 01:08:03;;;;;;;29.95;24.67;;;;;;;19.86;100.00;100893.41;10361541;28;20496;-70
2022/06/25 01:12:59;;;;;;;28.65;24.55;;;;;;;19.86;100.00;100900.94;10353731;28;20082;-71
2022/06/25 01:17:56;;;;;;;31.55;23.90;;;;;;;19.84;100.00;100912.44;10346506;28;20044;-71
2022/06/25 01:22:54;;;;;;;28.73;23.17;;;;;;;19.81;100.00;100910.41;10347399;28;20064;-72
2022/06/25 01:27:50;;;;;;;29.05;23.50;;;;;;;19.78;100.00;100922.25;10351237;28;20044;-72
2022/06/25 01:32:46;;;;;;;26.38;23.00;;;;;;;19.75;100.00;100918.25;10349117;28;20389;-70
2022/06/25 01:37:43;;;;;;;29.00;22.20;;;;;;;19.75;100.00;100917.47;10347062;28;20094;-73
2022/06/25 01:47:55;;;;;;;27.45;24.63;;;;;;;19.70;100.00;100909.44;10349686;28;20058;-68
2022/06/25 01:52:52;;;;;;;30.83;24.17;;;;;;;19.66;100.00;100917.69;10356774;28;20039;-70
2022/06/25 01:57:49;;;;;;;27.40;24.48;;;;;;;19.62;100.00;100930.72;10355591;28;20040;-70
2022/06/25 02:02:46;;;;;;;31.67;25.92;;;;;;;19.61;100.00;100929.13;10352328;28;20078;-72
2022/06/25 02:07:43;;;;;;;34.72;27.73;;;;;;;19.59;100.00;100927.88;10377941;28;20127;-70
2022/06/25 02:12:39;;;;;;;33.17;26.40;;;;;;;19.57;100.00;100927.47;10361845;28;20123;-70
2022/06/25 02:17:36;;;;;;;34.33;27.33;;;;;;;19.52;100.00;100918.31;10354997;28;20066;-70
2022/06/25 02:22:32;;;;;;;31.05;25.30;;;;;;;19.48;100.00;100920.22;10355063;28;20093;-70
2022/06/25 02:27:29;;;;;;;30.25;25.35;;;;;;;19.47;100.00;100923.34;10354583;28;20040;-70
2022/06/25 02:32:26;;;;;;;34.42;30.55;;;;;;;19.47;100.00;100935.25;10348792;28;20067;-68
2022/06/25 02:37:22;;;;;;;33.22;27.35;;;;;;;19.37;100.00;100946.97;10357563;28;20076;-68
2022/06/25 02:42:19;;;;;;;34.13;28.27;;;;;;;19.30;100.00;100950.44;10357683;28;20075;-68
2022/06/25 02:47:15;;;;;;;35.85;30.00;;;;;;;19.32;100.00;100950.06;10356735;28;20105;-67
2022/06/25 02:52:12;;;;;;;44.25;34.95;;;;;;;19.30;100.00;100957.94;10356032;28;20097;-67
2022/06/25 03:02:24;;;;;;;44.05;38.20;;;;;;;19.08;100.00;100963.16;10345653;28;20469;-70
2022/06/25 03:07:20;;;;;;;44.17;37.75;;;;;;;18.97;100.00;100962.16;10355525;28;20076;-69
2022/06/25 03:12:17;;;;;;;48.47;39.20;;;;;;;18.86;100.00;100967.50;10347806;28;20075;-68
2022/06/25 03:17:13;;;;;;;42.20;35.45;;;;;;;18.83;100.00;100967.47;10339428;28;20127;-69
2022/06/25 03:22:10;;;;;;;50.45;43.05;;;;;;;18.80;100.00;100968.16;10341717;28;20516;-69
2022/06/25 03:27:07;;;;;;;50.38;40.60;;;;;;;18.79;100.00;100978.44;10344300;28;20484;-70
2022/06/25 03:32:04;;;;;;;58.08;44.65;;;;;;;18.75;100.00;100971.22;10353607;28;20086;-70
2022/06/25 03:37:00;;;;;;;50.22;41.05;;;;;;;18.69;100.00;100979.84;10347992;28;20040;-70
2022/06/25 03:41:57;;;;;;;51.50;39.38;;;;;;;18.72;100.00;100990.16;10355735;28;20067;-69
2022/06/25 03:46:53;;;;;;;54.88;41.63;;;;;;;18.72;100.00;100989.38;10341638;28;20061;-69
2022/06/25 03:51:50;;;;;;;48.70;40.45;;;;;;;18.67;100.00;100992.44;10348571;28;20067;-69
2022/06/25 03:56:47;;;;;;;48.47;39.25;;;;;;;18.63;100.00;100986.81;10349548;28;21263;-68
2022/06/25 04:01:43;;;;;;;45.10;36.95;;;;;;;18.66;100.00;100990.84;10346483;27;20083;-67
2022/06/25 04:06:40;;;;;;;46.10;37.28;;;;;;;18.72;100.00;100995.72;10368208;28;20044;-68
2022/06/25 04:11:37;;;;;;;48.05;36.78;;;;;;;18.75;100.00;101001.69;10359380;28;20471;-68
2022/06/25 04:16:33;;;;;;;51.08;41.47;;;;;;;18.74;100.00;101000.88;10353902;28;20108;-67
2022/06/25 04:21:30;;;;;;;56.22;42.78;;;;;;;18.78;100.00;100998.22;10352508;28;20040;-68
2022/06/25 04:26:26;;;;;;;50.83;39.15;;;;;;;18.77;100.00;101002.94;10358238;28;20454;-70
2022/06/25 04:31:23;;;;;;;49.60;39.65;;;;;;;18.78;100.00;100995.47;10359489;28;20044;-67
2022/06/25 04:36:19;;;;;;;53.72;42.30;;;;;;;18.76;100.00;101011.63;10358308;28;20138;-69
2022/06/25 04:41:17;;;;;;;48.53;39.63;;;;;;;18.77;100.00;101008.50;10334904;28;20072;-69
2022/06/25 04:46:14;;;;;;;50.35;39.45;;;;;;;18.81;100.00;101014.09;10344775;28;20064;-68
2022/06/25 04:51:10;;;;;;;51.75;39.85;;;;;;;18.80;100.00;101018.03;10345128;28;20047;-70
2022/06/25 04:56:07;;;;;;;48.50;38.17;;;;;;;18.82;100.00;101026.78;10348838;28;20428;-70
2022/06/25 05:01:03;;;;;;;47.55;39.47;;;;;;;18.86;100.00;101022.13;10338807;28;20637;-70
2022/06/25 05:06:01;;;;;;;39.75;33.00;;;;;;;18.91;100.00;101035.66;10353703;28;20040;-70
2022/06/25 05:10:58;;;;;;;42.53;34.90;;;;;;;18.94;100.00;101040.50;10341554;28;20044;-71
2022/06/25 05:15:54;;;;;;;39.08;33.45;;;;;;;18.95;100.00;101042.06;10360269;28;20056;-71
2022/06/25 05:20:51;;;;;;;40.92;31.80;;;;;;;18.99;100.00;101040.19;10343336;28;20048;-71
2022/06/25 05:25:48;;;;;;;32.53;27.83;;;;;;;19.04;100.00;101050.97;10349313;28;20085;-71
2022/06/25 05:30:45;;;;;;;32.92;26.70;;;;;;;19.11;100.00;101055.84;10346790;28;20049;-71
2022/06/25 05:35:41;;;;;;;32.60;26.45;;;;;;;19.09;100.00;101067.28;10350612;28;20043;-69
2022/06/25 05:40:38;;;;;;;28.42;22.27;;;;;;;19.17;100.00;101070.19;10355669;28;20101;-71
2022/06/25 05:45:34;;;;;;;28.20;21.90;;;;;;;19.25;100.00;101071.94;10364076;28;20063;-71
2022/06/25 05:50:31;;;;;;;22.52;17.70;;;;;;;19.27;100.00;101081.47;10344571;28;20407;-71
2022/06/25 05:55:27;;;;;;;18.58;15.77;;;;;;;19.41;100.00;101092.00;10358180;27;20568;-69
2022/06/25 06:00:26;;;;;;;17.02;13.18;;;;;;;19.48;100.00;101092.13;10362744;28;20064;-69
2022/06/25 06:05:22;;;;;;;16.05;12.73;;;;;;;19.57;100.00;101093.88;10366154;28;20073;-68
2022/06/25 06:10:19;;;;;;;14.10;11.50;;;;;;;19.70;100.00;101095.31;10355536;28;20151;-68
2022/06/25 06:15:15;;;;;;;12.23;10.93;;;;;;;19.84;100.00;101092.78;10351181;28;20500;-68
2022/06/25 06:20:12;;;;;;;12.75;10.48;;;;;;;20.03;100.00;101093.84;10351213;28;20052;-72
2022/06/25 06:25:08;;;;;;;12.45;9.45;;;;;;;20.22;100.00;101085.41;10351645;28;20093;-67
2022/06/25 06:30:05;;;;;;;11.73;10.45;;;;;;;20.33;100.00;101085.53;10351103;28;20052;-67
2022/06/25 06:35:02;;;;;;;12.38;9.25;;;;;;;20.44;100.00;101088.47;10351341;28;20112;-66
2022/06/25 06:39:59;;;;;;;9.45;7.25;;;;;;;20.52;100.00;101093.75;10360397;28;20052;-67
2022/06/25 06:44:55;;;;;;;9.60;7.15;;;;;;;20.62;100.00;101089.53;10343542;28;20508;-67
2022/06/25 06:49:52;;;;;;;7.63;5.50;;;;;;;20.73;100.00;101104.38;10360496;28;20552;-67
2022/06/25 06:54:48;;;;;;;6.68;4.13;;;;;;;20.85;100.00;101102.53;10347856;28;20044;-68
2022/06/25 06:59:45;;;;;;;5.35;3.22;;;;;;;20.92;100.00;101105.38;10365589;28;20105;-72
2022/06/25 07:04:41;;;;;;;8.20;4.80;;;;;;;20.99;100.00;101100.69;10332704;28;20098;-70
2022/06/25 07:09:38;;;;;;;6.20;3.45;;;;;;;21.08;100.00;101094.84;10326927;27;20097;-71
2022/06/25 07:14:35;;;;;;;7.85;4.03;;;;;;;21.20;100.00;101102.13;10322188;28;20118;-72
2022/06/25 07:19:31;;;;;;;5.97;3.00;;;;;;;21.29;100.00;101099.03;10327257;28;20039;-70
2022/06/25 07:24:28;;;;;;;4.65;2.90;;;;;;;21.38;100.00;101102.31;10334567;28;20068;-70
2022/06/25 07:29:24;;;;;;;5.10;2.97;;;;;;;21.53;100.00;101106.03;10322357;28;20147;-70
2022/06/25 07:34:21;;;;;;;11.40;7.20;;;;;;;21.63;100.00;101111.72;10322914;28;20056;-70
2022/06/25 07:39:17;;;;;;;7.93;3.50;;;;;;;21.73;100.00;101109.41;10333336;28;20487;-73
2022/06/25 07:44:14;;;;;;;5.97;3.90;;;;;;;21.79;100.00;101103.09;10325423;28;20131;-73
2022/06/25 07:49:10;;;;;;;5.65;4.20;;;;;;;21.91;100.00;101115.91;10330835;28;20583;-71
2022/06/25 07:54:07;;;;;;;4.80;3.22;;;;;;;22.02;100.00;101116.81;10320933;28;20078;-71
2022/06/25 07:59:04;;;;;;;5.25;2.95;;;;;;;22.11;100.00;101101.72;10319936;28;20069;-71
2022/06/25 08:04:01;;;;;;;5.00;3.00;;;;;;;22.24;100.00;101116.97;10324765;27;20603;-71
2022/06/25 08:08:58;;;;;;;6.20;3.03;;;;;;;22.36;100.00;101113.84;10330965;28;20551;-72
2022/06/25 08:13:55;;;;;;;6.53;3.45;;;;;;;22.53;100.00;101120.72;10323132;28;20074;-71
2022/06/25 08:18:52;;;;;;;4.78;3.78;;;;;;;22.64;100.00;101127.13;10325091;28;20044;-71
2022/06/25 08:23:49;;;;;;;7.40;4.70;;;;;;;22.77;100.00;101127.59;10341823;28;20080;-70
2022/06/25 08:28:45;;;;;;;7.40;3.72;;;;;;;22.89;100.00;101113.31;10329382;28;20041;-71
2022/06/25 08:33:42;;;;;;;5.95;4.05;;;;;;;23.09;100.00;101115.78;10328434;28;20545;-71
2022/06/25 08:38:38;;;;;;;6.55;4.32;;;;;;;23.15;100.00;101119.00;10334408;28;20036;-71
2022/06/25 08:43:36;;;;;;;17.80;10.13;;;;;;;23.04;100.00;101113.38;10326374;28;20457;-71
2022/06/25 08:48:35;;;;;;;6.82;5.47;;;;;;;22.94;100.00;101123.28;10318933;28;20077;-70
2022/06/25 08:53:33;;;;;;;6.30;4.70;;;;;;;23.26;100.00;101122.63;10330156;28;20037;-71
2022/06/25 08:58:30;;;;;;;7.18;4.78;;;;;;;23.37;100.00;101119.81;10340388;28;20565;-71
2022/06/25 09:03:27;;;;;;;8.57;5.38;;;;;;;23.24;100.00;101117.41;10320506;28;20709;-70
2022/06/25 09:08:23;;;;;;;9.65;5.70;;;;;;;23.33;100.00;101119.03;10328261;28;20082;-71
2022/06/25 09:13:24;;;;;;;8.82;5.28;;;;;;;23.69;100.00;101109.50;10323884;28;20072;-71
2022/06/25 09:18:21;;;;;;;8.27;5.32;;;;;;;23.76;100.00;101114.31;10330584;28;20082;-71
2022/06/25 09:23:17;;;;;;;12.02;4.95;;;;;;;23.76;100.00;101102.34;10338268;28;20572;-71
2022/06/25 09:28:29;;;;;;;8.52;5.40;;;;;;;23.86;100.00;101105.16;10335019;28;20074;-71
2022/06/25 09:33:26;;;;;;;6.32;4.55;;;;;;;24.19;100.00;101110.69;10330056;28;20085;-71
2022/06/25 09:38:24;;;;;;;7.15;4.25;;;;;;;24.63;100.00;101110.19;10330091;28;20044;-71
2022/06/25 09:43:23;;;;;;;5.65;4.10;;;;;;;24.91;100.00;101112.06;10325518;28;20037;-71
2022/06/25 09:48:24;;;;;;;5.57;4.35;;;;;;;25.27;100.00;101109.09;10333990;28;20131;-71
2022/06/25 09:53:25;;;;;;;6.75;6.05;;;;;;;25.48;100.00;101108.13;10337261;28;20210;-71
2022/06/25 09:58:22;;;;;;;11.88;7.38;;;;;;;25.70;100.00;101108.78;10335100;28;20079;-71
2022/06/25 10:03:26;;;;;;;7.18;5.22;;;;;;;25.40;100.00;101106.63;10339666;28;20063;-71
2022/06/25 10:08:24;;;;;;;7.85;6.40;;;;;;;24.94;100.00;101105.66;10331777;28;20052;-71
2022/06/25 10:13:22;;;;;;;7.18;5.07;;;;;;;24.89;100.00;101111.69;10328478;28;20082;-71
2022/06/25 10:18:19;;;;;;;6.18;4.72;;;;;;;25.15;100.00;101096.34;10319419;28;20595;-71
2022/06/25 10:23:19;;;;;;;4.47;2.78;;;;;;;26.55;88.32;101103.59;10335772;28;20086;-72
2022/06/25 10:28:28;;;;;;;7.25;3.08;;;;;;;27.38;89.28;101094.06;10327820;28;20117;-72
2022/06/25 10:33:27;;;;;;;5.40;3.58;;;;;;;27.11;87.79;101091.22;10330892;28;20048;-73
2022/06/25 10:38:25;;;;;;;6.07;3.17;;;;;;;27.31;83.04;101094.97;10339360;28;20047;-72
2022/06/25 10:43:40;;;;;;;5.72;2.80;;;;;;;26.71;85.56;101090.97;10344578;28;20044;-72
2022/06/25 10:48:36;;;;;;;5.40;3.20;;;;;;;26.17;85.10;101083.94;10341890;28;20048;-72
2022/06/25 10:53:33;;;;;;;5.00;2.92;;;;;;;27.16;79.11;101087.97;10340703;28;20068;-72
2022/06/25 10:58:44;;;;;;;3.53;1.67;;;;;;;28.18;84.25;101078.25;10350003;28;20458;-72
2022/06/25 11:03:42;;;;;;;3.70;1.93;;;;;;;29.66;64.15;101087.91;10332270;28;20067;-72
2022/06/25 11:08:38;;;;;;;5.53;1.90;;;;;;;30.92;54.38;101090.13;10346941;28;20507;-72
2022/06/25 11:13:35;;;;;;;3.35;2.20;;;;;;;31.87;51.97;101090.28;10349854;28;20075;-72
2022/06/25 11:18:31;;;;;;;3.33;1.45;;;;;;;31.60;50.35;101088.75;10355516;28;20520;-72
2022/06/25 11:23:29;;;;;;;4.50;1.80;;;;;;;31.81;45.72;101086.44;10353970;28;20538;-73
2022/06/25 11:33:43;;;;;;;4.22;1.90;;;;;;;32.17;45.04;101088.03;10352605;28;20545;-72
2022/06/25 11:38:41;;;;;;;3.40;1.80;;;;;;;31.51;44.36;101085.81;10357589;28;20052;-72
2022/06/25 11:43:38;;;;;;;3.58;1.83;;;;;;;30.14;46.07;101093.91;10344677;28;20487;-73
2022/06/25 11:48:35;;;;;;;5.65;1.45;;;;;;;30.80;45.35;101095.28;10358971;28;20610;-72
2022/06/25 11:53:35;;;;;;;2.53;1.30;;;;;;;31.40;46.42;101086.19;10339947;28;20556;-72
2022/06/25 11:58:34;;;;;;;3.88;1.48;;;;;;;30.82;43.22;101095.63;10348503;28;20127;-72
2022/06/25 12:03:32;;;;;;;2.80;1.30;;;;;;;30.85;46.16;101090.34;10349743;27;20208;-72
2022/06/25 12:08:31;;;;;;;2.88;1.52;;;;;;;30.16;46.48;101091.44;10349753;28;20058;-72
2022/06/25 12:13:30;;;;;;;3.78;2.13;;;;;;;31.31;47.32;101082.41;10331965;28;20743;-72
2022/06/25 12:18:34;;;;;;;3.25;1.33;;;;;;;31.13;42.92;101089.44;10349876;28;20076;-72
2022/06/25 12:23:49;;;;;;;3.42;1.38;;;;;;;31.97;44.25;101083.47;10337312;28;20041;-72
2022/06/25 12:28:46;;;;;;;3.92;1.70;;;;;;;31.91;41.30;101079.59;10345401;28;20066;-72
2022/06/25 12:33:52;;;;;;;2.72;1.63;;;;;;;31.84;41.32;101083.50;10341067;28;20043;-72
2022/06/25 12:38:49;;;;;;;3.10;1.75;;;;;;;31.69;41.15;101085.22;10345268;28;20699;-72
2022/06/25 12:43:48;;;;;;;3.58;1.42;;;;;;;31.13;42.66;101078.16;10354522;28;20066;-72
2022/06/25 12:48:45;;;;;;;3.53;1.70;;;;;;;30.81;45.60;101070.66;10353742;28;20048;-72
2022/06/25 12:53:43;;;;;;;3.10;1.40;;;;;;;30.39;44.52;101067.88;10362087;28;20126;-72
2022/06/25 12:58:41;;;;;;;2.83;1.40;;;;;;;29.35;46.35;101074.16;10355296;28;20092;-72
2022/06/25 13:03:38;;;;;;;3.38;1.60;;;;;;;29.05;48.05;101075.22;10354005;28;20047;-71
2022/06/25 13:08:34;;;;;;;4.55;1.25;;;;;;;28.67;48.32;101070.06;10355569;28;20052;-72
2022/06/25 13:13:32;;;;;;;3.55;1.67;;;;;;;29.03;49.86;101069.25;10351418;28;20094;-72
2022/06/25 13:18:29;;;;;;;4.18;1.50;;;;;;;28.90;51.20;101066.34;10348463;28;20567;-72
2022/06/25 13:23:25;;;;;;;3.80;1.60;;;;;;;29.20;50.61;101066.50;10340904;28;20044;-72
2022/06/25 13:28:22;;;;;;;2.45;1.40;;;;;;;29.10;50.58;101069.13;10350690;28;20506;-71
2022/06/25 13:33:19;;;;;;;3.30;1.60;;;;;;;28.86;51.27;101070.47;10347125;28;20048;-70
2022/06/25 13:38:16;;;;;;;2.47;1.33;;;;;;;28.68;50.30;101077.25;10374244;28;20039;-73
2022/06/25 13:43:12;;;;;;;2.70;1.20;;;;;;;28.60;50.17;101075.84;10363607;27;20499;-70
2022/06/25 13:48:09;;;;;;;3.42;1.80;;;;;;;28.75;50.94;101076.31;10354283;28;20146;-70
2022/06/25 13:53:05;;;;;;;3.70;1.27;;;;;;;28.53;52.88;101070.38;10360881;28;20135;-70
2022/06/25 13:58:02;;;;;;;2.95;1.15;;;;;;;28.16;52.75;101066.66;10356330;28;20552;-72
2022/06/25 14:02:59;;;;;;;2.53;1.35;;;;;;;27.81;55.48;101070.88;10356513;27;20396;-70
2022/06/25 14:07:55;;;;;;;4.07;1.40;;;;;;;27.76;55.91;101069.38;10362455;28;20079;-70
2022/06/25 14:12:52;;;;;;;4.47;1.10;;;;;;;27.66;56.73;101064.72;10358962;28;20040;-69
2022/06/25 14:17:49;;;;;;;2.42;1.13;;;;;;;27.61;57.32;101065.22;10358366;28;20082;-70
2022/06/25 14:22:45;;;;;;;3.97;1.10;;;;;;;27.90;57.69;101076.78;10352388;28;20457;-70
2022/06/25 14:27:42;;;;;;;3.42;0.98;;;;;;;27.98;56.97;101069.00;10352803;27;20101;-70
2022/06/25 14:32:38;;;;;;;3.05;1.10;;;;;;;28.12;54.79;101063.09;10354620;28;20048;-70
2022/06/25 14:42:50;;;;;;;4.47;1.00;;;;;;;28.29;55.32;101061.97;10363287;28;20093;-71
2022/06/25 14:47:46;;;;;;;2.17;0.80;;;;;;;28.11;51.57;101072.78;10355109;28;20529;-70
2022/06/25 14:52:43;;;;;;;2.10;0.90;;;;;;;27.89;52.15;101070.34;10347461;28;20556;-70
2022/06/25 14:57:40;;;;;;;3.22;0.88;;;;;;;27.91;50.59;101058.69;10318300;28;20064;-70
2022/06/25 15:02:37;;;;;;;5.30;1.52;;;;;;;28.36;51.63;101060.22;10311153;28;20056;-71
2022/06/25 15:07:34;;;;;;;2.15;0.90;;;;;;;28.39;50.52;101056.56;10295241;28;20113;-68
2022/06/25 15:12:31;;;;;;;15.68;1.13;;;;;;;28.28;49.96;101057.56;10312569;28;20535;-68
2022/06/25 15:17:28;;;;;;;2.97;1.13;;;;;;;28.20;49.62;101053.31;10319637;28;20068;-68
2022/06/25 15:22:25;;;;;;;3.60;1.73;;;;;;;27.98;49.40;101052.13;10325978;28;20131;-68
2022/06/25 15:27:21;;;;;;;2.58;0.88;;;;;;;27.93;50.52;101055.47;10336107;28;20486;-67
2022/06/25 15:32:18;;;;;;;2.58;1.00;;;;;;;27.88;50.49;101045.50;10357610;27;20564;-67
2022/06/25 15:37:15;;;;;;;3.42;0.80;;;;;;;27.91;50.65;101053.84;10372041;28;20081;-67
2022/06/25 15:42:12;;;;;;;4.03;0.85;;;;;;;28.42;50.14;101052.88;10355658;27;20097;-66
2022/06/25 15:47:09;;;;;;;1.75;0.70;;;;;;;28.91;45.85;101047.41;10349265;28;20075;-67
2022/06/25 15:52:05;;;;;;;2.75;0.90;;;;;;;29.42;46.89;101044.25;10346261;28;20040;-67
2022/06/25 15:57:02;;;;;;;1.92;0.90;;;;;;;29.74;44.03;101038.59;10338949;28;20040;-67
2022/06/25 16:02:02;;;;;;;4.28;1.13;;;;;;;30.14;43.43;101037.53;10337019;28;20036;-67
2022/06/25 16:06:59;;;;;;;1.63;0.60;;;;;;;30.69;41.56;101043.22;10330682;27;20478;-67
2022/06/25 16:11:58;;;;;;;3.20;0.65;;;;;;;30.25;41.40;101046.47;10341974;28;20526;-68
2022/06/25 16:16:55;;;;;;;2.28;0.70;;;;;;;29.54;41.89;101049.97;10329395;28;20059;-67
2022/06/25 16:21:54;;;;;;;1.80;0.70;;;;;;;29.07;44.50;101050.28;10324403;28;20052;-68
2022/06/25 16:26:52;;;;;;;2.75;0.80;;;;;;;28.78;48.94;101052.13;10323694;28;20129;-67
2022/06/25 16:31:51;;;;;;;4.15;0.77;;;;;;;28.51;51.95;101053.91;10339640;28;20134;-67
2022/06/25 16:36:48;;;;;;;4.63;0.90;;;;;;;28.39;46.45;101048.13;10326978;28;20406;-68
2022/06/25 16:41:47;;;;;;;1.77;0.60;;;;;;;28.31;47.44;101053.09;10319011;28;20079;-68
2022/06/25 16:46:46;;;;;;;1.73;0.82;;;;;;;28.19;47.15;101051.72;10318824;28;20121;-68
2022/06/25 16:51:45;;;;;;;2.33;0.93;;;;;;;28.09;54.38;101052.72;10316680;28;20782;-68
2022/06/25 16:56:42;;;;;;;2.97;1.30;;;;;;;28.08;68.92;101056.75;10302336;28;20596;-67
2022/06/25 17:01:39;;;;;;;5.25;2.10;;;;;;;27.94;73.98;101052.19;10318517;28;20707;-67
2022/06/25 17:06:36;;;;;;;3.33;1.45;;;;;;;27.86;82.20;101045.91;10344812;28;20706;-68
2022/06/25 17:11:34;;;;;;;4.13;1.63;;;;;;;27.78;84.39;101055.69;10323596;28;20760;-67
2022/06/25 17:16:30;;;;;;;4.55;1.35;;;;;;;27.72;87.83;101054.59;10332142;28;20036;-68
2022/06/25 17:21:29;;;;;;;4.65;2.75;;;;;;;27.68;88.67;101062.28;10335405;28;20281;-68
2022/06/25 17:26:25;;;;;;;7.05;4.53;;;;;;;27.61;87.66;101056.78;10363698;28;20067;-68
2022/06/25 17:31:22;;;;;;;3.40;1.90;;;;;;;27.47;92.95;101069.03;10363256;28;20052;-68
2022/06/25 17:36:18;;;;;;;4.90;1.77;;;;;;;27.34;92.62;101066.06;10358371;28;20044;-67
2022/06/25 17:41:15;;;;;;;3.65;1.60;;;;;;;27.18;93.09;101075.09;10334515;28;20073;-67
2022/06/25 17:46:11;;;;;;;2.55;1.30;;;;;;;27.06;97.20;101076.47;10330758;28;20054;-67
2022/06/25 17:51:08;;;;;;;5.25;1.77;;;;;;;26.97;95.61;101070.59;10329419;28;20067;-67
2022/06/25 17:56:04;;;;;;;4.55;1.85;;;;;;;26.89;100.00;101091.53;10333341;28;20047;-67
2022/06/25 18:01:01;;;;;;;5.28;2.50;;;;;;;26.69;100.00;101093.41;10331008;28;20331;-67
2022/06/25 18:05:58;;;;;;;4.78;1.80;;;;;;;26.53;100.00;101102.41;10347474;27;20520;-73
2022/06/25 18:11:13;;;;;;;3.55;1.70;;;;;;;26.31;100.00;101107.44;10341994;28;20101;-68
2022/06/25 18:16:10;;;;;;;4.68;1.85;;;;;;;26.15;100.00;101105.19;10336272;28;20155;-67
2022/06/25 18:21:06;;;;;;;4.00;2.25;;;;;;;25.98;100.00;101107.75;10321624;28;20040;-68
2022/06/25 18:26:03;;;;;;;4.15;2.15;;;;;;;25.86;100.00;101110.25;10330359;28;20499;-68
2022/06/25 18:31:00;;;;;;;3.83;2.35;;;;;;;25.73;100.00;101102.34;10328038;28;20170;-67
2022/06/25 18:35:57;;;;;;;5.28;2.70;;;;;;;25.55;100.00;101118.50;10343461;28;20047;-67
2022/06/25 18:40:53;;;;;;;3.80;2.10;;;;;;;25.52;100.00;101114.50;10342991;28;20048;-67
2022/06/25 18:45:50;;;;;;;4.50;2.45;;;;;;;25.48;100.00;101112.94;10310200;28;20055;-67
2022/06/25 18:50:49;;;;;;;4.35;2.60;;;;;;;25.37;100.00;101115.84;10330678;28;20070;-67
2022/06/25 18:55:46;;;;;;;4.57;2.70;;;;;;;25.21;100.00;101109.94;10339094;28;20037;-67
2022/06/25 19:00:44;;;;;;;4.03;2.38;;;;;;;25.07;100.00;101116.41;10313130;28;20162;-68
2022/06/25 19:05:42;;;;;;;5.20;2.80;;;;;;;25.01;100.00;101123.63;10315996;28;20455;-68
2022/06/25 19:10:38;;;;;;;5.15;2.78;;;;;;;24.92;100.00;101138.81;10329266;28;20512;-68
2022/06/25 19:15:35;;;;;;;4.90;2.70;;;;;;;24.82;100.00;101122.91;10345082;28;20478;-68
2022/06/25 19:20:31;;;;;;;4.88;2.50;;;;;;;24.64;100.00;101127.75;10333232;28;20043;-67
2022/06/25 19:25:28;;;;;;;4.13;2.47;;;;;;;24.62;100.00;101130.94;10329733;28;20556;-68
2022/06/25 19:30:27;;;;;;;7.47;3.65;;;;;;;24.50;100.00;101134.19;10346320;28;20113;-67
2022/06/25 19:35:23;;;;;;;6.15;2.95;;;;;;;24.47;100.00;101135.81;10337447;28;20542;-67
2022/06/25 19:40:20;;;;;;;6.35;2.85;;;;;;;24.39;100.00;101134.19;10341627;28;20057;-68
2022/06/25 19:45:17;;;;;;;7.38;3.22;;;;;;;24.28;100.00;101133.44;10332427;27;20055;-67
2022/06/25 19:50:13;;;;;;;5.85;3.22;;;;;;;24.21;100.00;101144.63;10332703;28;20558;-68
2022/06/25 19:55:10;;;;;;;7.38;2.92;;;;;;;24.07;100.00;101140.63;10327613;28;20480;-68
2022/06/25 20:00:08;;;;;;;5.63;3.10;;;;;;;24.01;100.00;101147.03;10340239;28;20075;-68
2022/06/25 20:05:06;;;;;;;5.80;3.35;;;;;;;23.90;100.00;101141.44;10334807;28;20458;-68
2022/06/25 20:10:03;;;;;;;12.35;7.20;;;;;;;23.82;100.00;101146.22;10322353;28;20048;-68
2022/06/25 20:15:00;;;;;;;7.88;3.60;;;;;;;23.70;100.00;101150.19;10331460;28;20183;-68
2022/06/25 20:19:57;;;;;;;5.55;3.08;;;;;;;23.61;100.00;101152.56;10334006;28;20128;-68
2022/06/25 20:24:54;;;;;;;7.45;3.80;;;;;;;23.51;100.00;101147.78;10336748;28;20036;-68
2022/06/25 20:29:50;;;;;;;9.13;3.80;;;;;;;23.43;100.00;101151.75;10334241;27;20043;-68
2022/06/25 20:34:47;;;;;;;6.82;3.72;;;;;;;23.34;100.00;101159.69;10340075;28;20085;-68
2022/06/25 20:39:43;;;;;;;6.70;3.45;;;;;;;23.27;100.00;101161.25;10360734;28;20132;-68
2022/06/25 20:44:40;;;;;;;5.57;3.70;;;;;;;23.19;100.00;101159.66;10340676;27;20053;-68
2022/06/25 20:49:36;;;;;;;5.70;3.67;;;;;;;23.08;100.00;101161.59;10342186;28;20462;-68
2022/06/25 20:54:33;;;;;;;5.97;3.20;;;;;;;23.01;100.00;101167.16;10320590;28;20137;-68
2022/06/25 20:59:31;;;;;;;5.10;3.47;;;;;;;22.93;100.00;101163.53;10336618;28;20140;-68
2022/06/25 21:09:42;;;;;;;6.53;3.75;;;;;;;22.78;100.00;101161.84;10308971;28;20637;-68
2022/06/25 21:14:39;;;;;;;5.53;3.92;;;;;;;22.68;100.00;101168.97;10326176;28;20068;-69
2022/06/25 21:19:36;;;;;;;6.65;3.63;;;;;;;22.61;100.00;101163.38;10319208;28;20063;-70
2022/06/25 21:24:32;;;;;;;5.80;3.85;;;;;;;22.54;100.00;101168.91;10342422;28;20074;-70
2022/06/25 21:29:29;;;;;;;7.10;3.75;;;;;;;22.51;100.00;101175.22;10343361;28;20044;-70
2022/06/25 21:34:25;;;;;;;5.95;4.07;;;;;;;22.44;100.00;101170.41;10346936;28;20044;-66
2022/06/25 21:39:22;;;;;;;8.48;4.50;;;;;;;22.38;100.00;101169.97;10317347;28;20078;-66
2022/06/25 21:44:19;;;;;;;6.88;4.68;;;;;;;22.36;100.00;101169.56;10329029;28;20078;-67
2022/06/25 21:49:15;;;;;;;6.68;4.30;;;;;;;22.30;100.00;101171.09;10345831;28;20131;-67
2022/06/25 21:54:11;;;;;;;7.03;4.32;;;;;;;22.26;100.00;101178.66;10359105;28;20036;-67
2022/06/25 21:59:08;;;;;;;6.05;4.38;;;;;;;22.18;100.00;101180.53;10352680;28;20087;-68
2022/06/25 22:04:04;;;;;;;9.30;6.05;;;;;;;22.13;100.00;101185.69;10351748;28;20067;-67
2022/06/25 22:09:01;;;;;;;9.70;6.35;;;;;;;22.02;100.00;101186.41;10339871;28;20047;-66
2022/06/25 22:13:58;;;;;;;8.40;5.72;;;;;;;21.95;100.00;101189.09;10334986;28;20048;-66
2022/06/25 22:18:54;;;;;;;9.13;5.55;;;;;;;21.89;100.00;101196.22;10345108;28;20046;-67
2022/06/25 22:23:57;;;;;;;9.35;6.10;;;;;;;21.81;100.00;101200.13;10342882;28;20523;-66
2022/06/25 22:28:54;;;;;;;8.45;5.28;;;;;;;21.75;100.00;101190.53;10361003;28;20134;-66
2022/06/25 22:33:50;;;;;;;8.18;5.68;;;;;;;21.70;100.00;101188.06;10362404;28;20044;-67
2022/06/25 22:38:47;;;;;;;8.38;6.03;;;;;;;21.64;100.00;101184.84;10359406;28;20094;-67
2022/06/25 22:43:43;;;;;;;7.82;5.45;;;;;;;21.58;100.00;101192.75;10363126;27;20479;-67
2022/06/25 22:48:40;;;;;;;9.73;5.72;;;;;;;21.49;100.00;101183.91;10365642;28;20047;-67
2022/06/25 22:53:44;;;;;;;8.05;5.63;;;;;;;21.47;100.00;101183.50;10357182;28;20044;-67